Calingasta, Argentina
Current Conditions -  °F | °C
As of 9:00 PM on Monday 22 Dec 2014 (Local Time) from SAME Reporting Station
Clear Clear  
Wind Chill: 66°   Ceiling: Unl
Heat Index: 66°   Visibility: 6mi
Dew Point: 27°   Wind: 3mph
Humidity: 23%   Direction: 270°W
Pressure: 30.18"   Gusts: NA
Location:  31.32°S, 69.42°W
Report Text: SAME 230000Z 27003KT CAVOK 19/M03 Q1022
Loading
Personal Weather Stations






























Interactive Weather Map New forecast layout! Learn more

10-Day Weather Forecast

Advertisements
Track Severe Weather on mobile